Portada
METAR-TAF:

METAR-TAF

Aeroports :

East Jakarta, Indonèsia

latitud: 06-15-59S, longitud: 106-53-28E, altitud: 25 m

Observació

L'informe es va fer fa 56 minuts, a les 04:00 UTC
Vent 10 kt del Oest/Sud-Oest
Temperatura 32°C
Humitat 59%
Pressió 1010 hPa
Visibilitat: 8000 m
Escasses núvols a una alçada de 1700 ft

METAR: WIHH 230400Z 25010KT 8000 FEW017 32/23 Q1010 NOSIG

Hora: 11:56 (04:56 UTC)

Pronòstic

L'informe es va fer fa 5 hores i 56 minuts, a les 23:00 UTC
Pronòstic vàlid del 23 a les 00 UTC al 24 a les 00 UTC
Vent 10 kt del Oest
Visibilitat: 7000 m
Núvols disperses a una alçada de 2000 ft
Temporalment
l' 23 a les 08 UTC al 23 a les 11 UTC
Visibilitat: 4000 m
Escasses núvols a una alçada de 1800 ft, Cumulonimbus.
pluja
Evolucionant progressivament
l' 23 a les 12 UTC al 23 a les 14 UTC
Vent 4 kt del Sud-Oest
Visibilitat: 6000 m
Escasses núvols a una alçada de 2200 ft

TAF: WIHH 222300Z 2300/2400 26010KT 7000 SCT020 TEMPO 2308/2311 4000 -RA FEW018CB BECMG 2312/2314 22004KT 6000 FEW022

Observacions i pronòstics meteorològics de més de 4000 aeroports (METAR i TAF).

Les estacions disponibles són els punts grocs i vermells al mapa.

Posi el ratolí al punt desitjat per veure el nom de l'estació.

Feu clic per veure les observacions i els pronòstics meteorològics.

Per canviar el mapa: feu clic els botons verds amb una creu de color negre per apropar; al botó verd amb un guió per allunyar la imatge; o en les fletxes verdes per a mapes adjacents.


METAR-TAF: